sensor_id;sensor_type;location;lat;lon;timestamp;pressure;altitude;pressure_sealevel;temperature
18219;BMP180;9234;49.344;11.120;2023-03-25T00:01:17;96802.00;;;10.30
18219;BMP180;9234;49.344;11.120;2023-03-25T00:03:47;96806.00;;;10.30
18219;BMP180;9234;49.344;11.120;2023-03-25T00:06:18;96796.00;;;10.30
18219;BMP180;9234;49.344;11.120;2023-03-25T00:08:46;96798.00;;;10.30
18219;BMP180;9234;49.344;11.120;2023-03-25T00:11:14;96795.00;;;10.30
18219;BMP180;9234;49.344;11.120;2023-03-25T00:13:43;96795.00;;;10.20
18219;BMP180;9234;49.344;11.120;2023-03-25T00:16:11;96790.00;;;10.20
18219;BMP180;9234;49.344;11.120;2023-03-25T00:18:40;96788.00;;;10.20
18219;BMP180;9234;49.344;11.120;2023-03-25T00:21:09;96770.00;;;10.10
18219;BMP180;9234;49.344;11.120;2023-03-25T00:23:38;96786.00;;;10.00
18219;BMP180;9234;49.344;11.120;2023-03-25T00:26:08;96787.00;;;10.00
18219;BMP180;9234;49.344;11.120;2023-03-25T00:28:37;96780.00;;;9.90
18219;BMP180;9234;49.344;11.120;2023-03-25T00:31:10;96777.00;;;9.90
18219;BMP180;9234;49.344;11.120;2023-03-25T00:33:39;96771.00;;;9.90
18219;BMP180;9234;49.344;11.120;2023-03-25T00:36:11;96776.00;;;9.90
18219;BMP180;9234;49.344;11.120;2023-03-25T00:38:41;96765.00;;;9.90
18219;BMP180;9234;49.344;11.120;2023-03-25T00:41:13;96754.00;;;9.90
18219;BMP180;9234;49.344;11.120;2023-03-25T00:43:43;96767.00;;;9.90
18219;BMP180;9234;49.344;11.120;2023-03-25T00:46:12;96763.00;;;9.90
18219;BMP180;9234;49.344;11.120;2023-03-25T00:48:40;96771.00;;;9.90
18219;BMP180;9234;49.344;11.120;2023-03-25T00:51:10;96770.00;;;10.00
18219;BMP180;9234;49.344;11.120;2023-03-25T00:53:40;96774.00;;;10.00
18219;BMP180;9234;49.344;11.120;2023-03-25T00:56:09;96781.00;;;10.00
18219;BMP180;9234;49.344;11.120;2023-03-25T00:58:38;96786.00;;;10.00
18219;BMP180;9234;49.344;11.120;2023-03-25T01:01:11;96792.00;;;10.00
18219;BMP180;9234;49.344;11.120;2023-03-25T01:03:42;96795.00;;;10.00
18219;BMP180;9234;49.344;11.120;2023-03-25T01:06:14;96795.00;;;10.00
18219;BMP180;9234;49.344;11.120;2023-03-25T01:08:43;96787.00;;;10.00
18219;BMP180;9234;49.344;11.120;2023-03-25T01:11:19;96796.00;;;10.00
18219;BMP180;9234;49.344;11.120;2023-03-25T01:13:49;96777.00;;;9.90
18219;BMP180;9234;49.344;11.120;2023-03-25T01:16:18;96770.00;;;9.90
18219;BMP180;9234;49.344;11.120;2023-03-25T01:18:46;96757.00;;;9.90
18219;BMP180;9234;49.344;11.120;2023-03-25T01:21:17;96751.00;;;9.90
18219;BMP180;9234;49.344;11.120;2023-03-25T01:23:45;96752.00;;;9.80
18219;BMP180;9234;49.344;11.120;2023-03-25T01:26:14;96768.00;;;9.80
18219;BMP180;9234;49.344;11.120;2023-03-25T01:28:44;96758.00;;;9.70
18219;BMP180;9234;49.344;11.120;2023-03-25T01:31:13;96752.00;;;9.60
18219;BMP180;9234;49.344;11.120;2023-03-25T01:33:42;96751.00;;;9.60
18219;BMP180;9234;49.344;11.120;2023-03-25T01:36:11;96752.00;;;9.50
18219;BMP180;9234;49.344;11.120;2023-03-25T01:38:41;96759.00;;;9.50
18219;BMP180;9234;49.344;11.120;2023-03-25T01:41:10;96769.00;;;9.40
18219;BMP180;9234;49.344;11.120;2023-03-25T01:43:39;96758.00;;;9.40
18219;BMP180;9234;49.344;11.120;2023-03-25T01:46:11;96761.00;;;9.40
18219;BMP180;9234;49.344;11.120;2023-03-25T01:48:43;96748.00;;;9.40
18219;BMP180;9234;49.344;11.120;2023-03-25T01:51:16;96729.00;;;9.40
18219;BMP180;9234;49.344;11.120;2023-03-25T01:53:48;96743.00;;;9.30
18219;BMP180;9234;49.344;11.120;2023-03-25T01:56:24;96743.00;;;9.40
18219;BMP180;9234;49.344;11.120;2023-03-25T01:58:59;96736.00;;;9.30
18219;BMP180;9234;49.344;11.120;2023-03-25T02:01:30;96729.00;;;9.40
18219;BMP180;9234;49.344;11.120;2023-03-25T02:04:00;96739.00;;;9.30
18219;BMP180;9234;49.344;11.120;2023-03-25T02:06:41;96743.00;;;9.40
18219;BMP180;9234;49.344;11.120;2023-03-25T02:09:15;96729.00;;;9.30
18219;BMP180;9234;49.344;11.120;2023-03-25T02:11:44;96730.00;;;9.30
18219;BMP180;9234;49.344;11.120;2023-03-25T02:14:16;96722.00;;;9.30
18219;BMP180;9234;49.344;11.120;2023-03-25T02:16:54;96727.00;;;9.30
18219;BMP180;9234;49.344;11.120;2023-03-25T02:20:04;96725.00;;;9.30
18219;BMP180;9234;49.344;11.120;2023-03-25T02:23:27;96723.00;;;9.30
18219;BMP180;9234;49.344;11.120;2023-03-25T02:26:44;96742.00;;;9.30
18219;BMP180;9234;49.344;11.120;2023-03-25T02:29:36;96741.00;;;9.20
18219;BMP180;9234;49.344;11.120;2023-03-25T02:32:24;96741.00;;;9.30
18219;BMP180;9234;49.344;11.120;2023-03-25T02:35:19;96735.00;;;9.30
18219;BMP180;9234;49.344;11.120;2023-03-25T02:38:09;96740.00;;;9.30
18219;BMP180;9234;49.344;11.120;2023-03-25T02:40:51;96742.00;;;9.30
18219;BMP180;9234;49.344;11.120;2023-03-25T02:43:29;96736.00;;;9.30
18219;BMP180;9234;49.344;11.120;2023-03-25T02:46:04;96752.00;;;9.30
18219;BMP180;9234;49.344;11.120;2023-03-25T02:48:41;96741.00;;;9.30
18219;BMP180;9234;49.344;11.120;2023-03-25T02:51:15;96748.00;;;9.30
18219;BMP180;9234;49.344;11.120;2023-03-25T02:53:49;96745.00;;;9.30
18219;BMP180;9234;49.344;11.120;2023-03-25T02:56:22;96760.00;;;9.30
18219;BMP180;9234;49.344;11.120;2023-03-25T02:58:55;96754.00;;;9.30
18219;BMP180;9234;49.344;11.120;2023-03-25T03:01:25;96752.00;;;9.30
18219;BMP180;9234;49.344;11.120;2023-03-25T03:03:55;96756.00;;;9.30
18219;BMP180;9234;49.344;11.120;2023-03-25T03:06:24;96759.00;;;9.30
18219;BMP180;9234;49.344;11.120;2023-03-25T03:09:12;96756.00;;;9.30
18219;BMP180;9234;49.344;11.120;2023-03-25T03:11:55;96748.00;;;9.40
18219;BMP180;9234;49.344;11.120;2023-03-25T03:14:44;96745.00;;;9.40
18219;BMP180;9234;49.344;11.120;2023-03-25T03:17:22;96744.00;;;9.40
18219;BMP180;9234;49.344;11.120;2023-03-25T03:19:55;96734.00;;;9.40
18219;BMP180;9234;49.344;11.120;2023-03-25T03:22:38;96742.00;;;9.50
18219;BMP180;9234;49.344;11.120;2023-03-25T03:25:19;96743.00;;;9.50
18219;BMP180;9234;49.344;11.120;2023-03-25T03:27:55;96734.00;;;9.50
18219;BMP180;9234;49.344;11.120;2023-03-25T03:30:28;96731.00;;;9.50
18219;BMP180;9234;49.344;11.120;2023-03-25T03:33:06;96731.00;;;9.50
18219;BMP180;9234;49.344;11.120;2023-03-25T03:35:45;96749.00;;;9.60
18219;BMP180;9234;49.344;11.120;2023-03-25T03:38:23;96731.00;;;9.50
18219;BMP180;9234;49.344;11.120;2023-03-25T03:40:57;96741.00;;;9.50
18219;BMP180;9234;49.344;11.120;2023-03-25T03:43:34;96750.00;;;9.50
18219;BMP180;9234;49.344;11.120;2023-03-25T03:46:10;96746.00;;;9.40
18219;BMP180;9234;49.344;11.120;2023-03-25T03:48:47;96739.00;;;9.40
18219;BMP180;9234;49.344;11.120;2023-03-25T03:51:22;96731.00;;;9.40
18219;BMP180;9234;49.344;11.120;2023-03-25T03:53:57;96755.00;;;9.40
18219;BMP180;9234;49.344;11.120;2023-03-25T03:56:32;96739.00;;;9.40
18219;BMP180;9234;49.344;11.120;2023-03-25T03:59:11;96743.00;;;9.40
18219;BMP180;9234;49.344;11.120;2023-03-25T04:01:45;96735.00;;;9.40
18219;BMP180;9234;49.344;11.120;2023-03-25T04:04:18;96730.00;;;9.40
18219;BMP180;9234;49.344;11.120;2023-03-25T04:06:54;96730.00;;;9.40
18219;BMP180;9234;49.344;11.120;2023-03-25T04:09:29;96739.00;;;9.40
18219;BMP180;9234;49.344;11.120;2023-03-25T04:12:09;96743.00;;;9.40
18219;BMP180;9234;49.344;11.120;2023-03-25T04:14:41;96754.00;;;9.50
18219;BMP180;9234;49.344;11.120;2023-03-25T04:17:10;96752.00;;;9.50
18219;BMP180;9234;49.344;11.120;2023-03-25T04:19:39;96767.00;;;9.50
18219;BMP180;9234;49.344;11.120;2023-03-25T04:22:08;96759.00;;;9.50
18219;BMP180;9234;49.344;11.120;2023-03-25T04:24:39;96766.00;;;9.40
18219;BMP180;9234;49.344;11.120;2023-03-25T04:27:09;96781.00;;;9.40
18219;BMP180;9234;49.344;11.120;2023-03-25T04:29:39;96770.00;;;9.30
18219;BMP180;9234;49.344;11.120;2023-03-25T04:32:11;96766.00;;;9.30
18219;BMP180;9234;49.344;11.120;2023-03-25T04:34:39;96762.00;;;9.30
18219;BMP180;9234;49.344;11.120;2023-03-25T04:37:07;96776.00;;;9.30
18219;BMP180;9234;49.344;11.120;2023-03-25T04:39:36;96762.00;;;9.30
18219;BMP180;9234;49.344;11.120;2023-03-25T04:42:05;96764.00;;;9.30
18219;BMP180;9234;49.344;11.120;2023-03-25T04:44:36;96759.00;;;9.20
18219;BMP180;9234;49.344;11.120;2023-03-25T04:47:08;96754.00;;;9.10
18219;BMP180;9234;49.344;11.120;2023-03-25T04:49:40;96768.00;;;9.10
18219;BMP180;9234;49.344;11.120;2023-03-25T04:52:11;96766.00;;;9.10
18219;BMP180;9234;49.344;11.120;2023-03-25T04:54:39;96758.00;;;9.10
18219;BMP180;9234;49.344;11.120;2023-03-25T04:57:08;96758.00;;;9.10
18219;BMP180;9234;49.344;11.120;2023-03-25T04:59:37;96769.00;;;9.00
18219;BMP180;9234;49.344;11.120;2023-03-25T05:02:06;96775.00;;;9.00
18219;BMP180;9234;49.344;11.120;2023-03-25T05:04:40;96788.00;;;9.00
18219;BMP180;9234;49.344;11.120;2023-03-25T05:07:09;96780.00;;;9.00
18219;BMP180;9234;49.344;11.120;2023-03-25T05:09:37;96780.00;;;8.90
18219;BMP180;9234;49.344;11.120;2023-03-25T05:12:05;96783.00;;;8.90
18219;BMP180;9234;49.344;11.120;2023-03-25T05:14:38;96780.00;;;8.90
18219;BMP180;9234;49.344;11.120;2023-03-25T05:17:07;96774.00;;;8.80
18219;BMP180;9234;49.344;11.120;2023-03-25T05:19:35;96788.00;;;8.90
18219;BMP180;9234;49.344;11.120;2023-03-25T05:22:03;96789.00;;;8.90
18219;BMP180;9234;49.344;11.120;2023-03-25T05:24:31;96785.00;;;8.90
18219;BMP180;9234;49.344;11.120;2023-03-25T05:27:00;96804.00;;;8.90
18219;BMP180;9234;49.344;11.120;2023-03-25T05:29:29;96797.00;;;8.90
18219;BMP180;9234;49.344;11.120;2023-03-25T05:32:01;96798.00;;;8.90
18219;BMP180;9234;49.344;11.120;2023-03-25T05:34:29;96802.00;;;8.90
18219;BMP180;9234;49.344;11.120;2023-03-25T05:36:57;96813.00;;;8.90
18219;BMP180;9234;49.344;11.120;2023-03-25T05:39:26;96819.00;;;8.80
18219;BMP180;9234;49.344;11.120;2023-03-25T05:41:55;96836.00;;;8.90
18219;BMP180;9234;49.344;11.120;2023-03-25T05:44:28;96821.00;;;8.90
18219;BMP180;9234;49.344;11.120;2023-03-25T05:46:57;96837.00;;;8.90
18219;BMP180;9234;49.344;11.120;2023-03-25T05:49:28;96844.00;;;8.90
18219;BMP180;9234;49.344;11.120;2023-03-25T05:51:56;96848.00;;;9.00
18219;BMP180;9234;49.344;11.120;2023-03-25T05:54:25;96854.00;;;9.00
18219;BMP180;9234;49.344;11.120;2023-03-25T05:56:54;96858.00;;;9.00
18219;BMP180;9234;49.344;11.120;2023-03-25T05:59:22;96853.00;;;9.00
18219;BMP180;9234;49.344;11.120;2023-03-25T06:01:51;96861.00;;;9.00
18219;BMP180;9234;49.344;11.120;2023-03-25T06:04:19;96859.00;;;9.00
18219;BMP180;9234;49.344;11.120;2023-03-25T06:06:49;96865.00;;;9.00
18219;BMP180;9234;49.344;11.120;2023-03-25T06:09:17;96861.00;;;9.00
18219;BMP180;9234;49.344;11.120;2023-03-25T06:11:45;96872.00;;;9.00
18219;BMP180;9234;49.344;11.120;2023-03-25T06:14:19;96859.00;;;9.00
18219;BMP180;9234;49.344;11.120;2023-03-25T06:16:51;96863.00;;;9.10
18219;BMP180;9234;49.344;11.120;2023-03-25T06:19:19;96863.00;;;9.10
18219;BMP180;9234;49.344;11.120;2023-03-25T06:21:53;96865.00;;;9.20
18219;BMP180;9234;49.344;11.120;2023-03-25T06:24:21;96875.00;;;9.20
18219;BMP180;9234;49.344;11.120;2023-03-25T06:26:50;96866.00;;;9.20
18219;BMP180;9234;49.344;11.120;2023-03-25T06:29:18;96869.00;;;9.20
18219;BMP180;9234;49.344;11.120;2023-03-25T06:31:47;96875.00;;;9.30
18219;BMP180;9234;49.344;11.120;2023-03-25T06:34:15;96877.00;;;9.30
18219;BMP180;9234;49.344;11.120;2023-03-25T06:36:43;96881.00;;;9.40
18219;BMP180;9234;49.344;11.120;2023-03-25T06:39:17;96863.00;;;9.40
18219;BMP180;9234;49.344;11.120;2023-03-25T06:41:45;96863.00;;;9.50
18219;BMP180;9234;49.344;11.120;2023-03-25T06:44:20;96879.00;;;9.50
18219;BMP180;9234;49.344;11.120;2023-03-25T06:47:29;96872.00;;;9.50
18219;BMP180;9234;49.344;11.120;2023-03-25T06:49:58;96863.00;;;9.50
18219;BMP180;9234;49.344;11.120;2023-03-25T06:52:26;96863.00;;;9.60
18219;BMP180;9234;49.344;11.120;2023-03-25T06:54:57;96854.00;;;9.60
18219;BMP180;9234;49.344;11.120;2023-03-25T06:57:25;96861.00;;;9.70
18219;BMP180;9234;49.344;11.120;2023-03-25T06:59:53;96847.00;;;9.70
18219;BMP180;9234;49.344;11.120;2023-03-25T07:02:21;96864.00;;;9.80
18219;BMP180;9234;49.344;11.120;2023-03-25T07:04:50;96857.00;;;9.90
18219;BMP180;9234;49.344;11.120;2023-03-25T07:07:18;96861.00;;;10.00
18219;BMP180;9234;49.344;11.120;2023-03-25T07:09:50;96863.00;;;10.10
18219;BMP180;9234;49.344;11.120;2023-03-25T07:12:23;96853.00;;;10.20
18219;BMP180;9234;49.344;11.120;2023-03-25T07:14:52;96868.00;;;10.20
18219;BMP180;9234;49.344;11.120;2023-03-25T07:17:20;96876.00;;;10.30
18219;BMP180;9234;49.344;11.120;2023-03-25T07:19:49;96873.00;;;10.30
18219;BMP180;9234;49.344;11.120;2023-03-25T07:22:18;96872.00;;;10.30
18219;BMP180;9234;49.344;11.120;2023-03-25T07:24:46;96868.00;;;10.30
18219;BMP180;9234;49.344;11.120;2023-03-25T07:27:14;96883.00;;;10.40
18219;BMP180;9234;49.344;11.120;2023-03-25T07:29:51;96879.00;;;10.40
18219;BMP180;9234;49.344;11.120;2023-03-25T07:32:20;96870.00;;;10.40
18219;BMP180;9234;49.344;11.120;2023-03-25T07:34:48;96874.00;;;10.40
18219;BMP180;9234;49.344;11.120;2023-03-25T07:37:16;96877.00;;;10.30
18219;BMP180;9234;49.344;11.120;2023-03-25T07:39:45;96876.00;;;10.30
18219;BMP180;9234;49.344;11.120;2023-03-25T07:42:13;96881.00;;;10.20
18219;BMP180;9234;49.344;11.120;2023-03-25T07:45:22;96892.00;;;10.20
18219;BMP180;9234;49.344;11.120;2023-03-25T07:47:52;96891.00;;;10.20
18219;BMP180;9234;49.344;11.120;2023-03-25T07:50:22;96883.00;;;10.20
18219;BMP180;9234;49.344;11.120;2023-03-25T07:52:53;96885.00;;;10.20
18219;BMP180;9234;49.344;11.120;2023-03-25T07:55:22;96877.00;;;10.20
18219;BMP180;9234;49.344;11.120;2023-03-25T07:57:50;96891.00;;;10.30
18219;BMP180;9234;49.344;11.120;2023-03-25T08:00:20;96904.00;;;10.30
18219;BMP180;9234;49.344;11.120;2023-03-25T08:02:49;96882.00;;;10.30
18219;BMP180;9234;49.344;11.120;2023-03-25T08:05:17;96876.00;;;10.40
18219;BMP180;9234;49.344;11.120;2023-03-25T08:07:48;96871.00;;;10.50
18219;BMP180;9234;49.344;11.120;2023-03-25T08:10:17;96888.00;;;10.50
18219;BMP180;9234;49.344;11.120;2023-03-25T08:12:46;96878.00;;;10.70
18219;BMP180;9234;49.344;11.120;2023-03-25T08:15:14;96878.00;;;10.80
18219;BMP180;9234;49.344;11.120;2023-03-25T08:17:45;96883.00;;;10.90
18219;BMP180;9234;49.344;11.120;2023-03-25T08:20:14;96879.00;;;11.00
18219;BMP180;9234;49.344;11.120;2023-03-25T08:22:43;96881.00;;;11.00
18219;BMP180;9234;49.344;11.120;2023-03-25T08:25:12;96876.00;;;11.20
18219;BMP180;9234;49.344;11.120;2023-03-25T08:27:41;96872.00;;;11.30
18219;BMP180;9234;49.344;11.120;2023-03-25T08:30:11;96881.00;;;11.30
18219;BMP180;9234;49.344;11.120;2023-03-25T08:32:39;96891.00;;;11.30
18219;BMP180;9234;49.344;11.120;2023-03-25T08:35:13;96908.00;;;11.40
18219;BMP180;9234;49.344;11.120;2023-03-25T08:37:41;96909.00;;;11.50
18219;BMP180;9234;49.344;11.120;2023-03-25T08:40:10;96893.00;;;11.50
18219;BMP180;9234;49.344;11.120;2023-03-25T08:42:38;96890.00;;;11.70
18219;BMP180;9234;49.344;11.120;2023-03-25T08:45:10;96896.00;;;11.70
18219;BMP180;9234;49.344;11.120;2023-03-25T08:47:38;96884.00;;;11.70
18219;BMP180;9234;49.344;11.120;2023-03-25T08:50:09;96879.00;;;11.80
18219;BMP180;9234;49.344;11.120;2023-03-25T08:52:39;96878.00;;;12.00
18219;BMP180;9234;49.344;11.120;2023-03-25T08:55:10;96870.00;;;12.00
18219;BMP180;9234;49.344;11.120;2023-03-25T08:57:38;96874.00;;;12.10
18219;BMP180;9234;49.344;11.120;2023-03-25T09:00:10;96865.00;;;12.00
18219;BMP180;9234;49.344;11.120;2023-03-25T09:02:40;96865.00;;;12.00
18219;BMP180;9234;49.344;11.120;2023-03-25T09:05:10;96865.00;;;11.90
18219;BMP180;9234;49.344;11.120;2023-03-25T09:07:41;96869.00;;;11.90
18219;BMP180;9234;49.344;11.120;2023-03-25T09:10:09;96865.00;;;11.90
18219;BMP180;9234;49.344;11.120;2023-03-25T09:12:39;96869.00;;;12.00
18219;BMP180;9234;49.344;11.120;2023-03-25T09:15:09;96859.00;;;12.20
18219;BMP180;9234;49.344;11.120;2023-03-25T09:17:39;96864.00;;;12.40
18219;BMP180;9234;49.344;11.120;2023-03-25T09:20:09;96856.00;;;12.50
18219;BMP180;9234;49.344;11.120;2023-03-25T09:22:40;96865.00;;;12.60
18219;BMP180;9234;49.344;11.120;2023-03-25T09:25:09;96858.00;;;12.40
18219;BMP180;9234;49.344;11.120;2023-03-25T09:27:37;96865.00;;;12.40
18219;BMP180;9234;49.344;11.120;2023-03-25T09:30:08;96843.00;;;12.60
18219;BMP180;9234;49.344;11.120;2023-03-25T09:32:36;96847.00;;;12.70
18219;BMP180;9234;49.344;11.120;2023-03-25T09:35:06;96852.00;;;12.80
18219;BMP180;9234;49.344;11.120;2023-03-25T09:37:34;96850.00;;;12.90
18219;BMP180;9234;49.344;11.120;2023-03-25T09:40:06;96845.00;;;13.10
18219;BMP180;9234;49.344;11.120;2023-03-25T09:42:46;96860.00;;;13.40
18219;BMP180;9234;49.344;11.120;2023-03-25T09:45:29;96874.00;;;13.40
18219;BMP180;9234;49.344;11.120;2023-03-25T09:48:03;96868.00;;;13.50
18219;BMP180;9234;49.344;11.120;2023-03-25T09:50:35;96860.00;;;13.40
18219;BMP180;9234;49.344;11.120;2023-03-25T09:53:12;96851.00;;;13.60
18219;BMP180;9234;49.344;11.120;2023-03-25T09:55:45;96874.00;;;13.70
18219;BMP180;9234;49.344;11.120;2023-03-25T09:58:37;96873.00;;;13.80
18219;BMP180;9234;49.344;11.120;2023-03-25T10:01:24;96854.00;;;14.00
18219;BMP180;9234;49.344;11.120;2023-03-25T10:04:32;96851.00;;;14.30
18219;BMP180;9234;49.344;11.120;2023-03-25T10:07:22;96842.00;;;14.40
18219;BMP180;9234;49.344;11.120;2023-03-25T10:10:05;96850.00;;;14.40
18219;BMP180;9234;49.344;11.120;2023-03-25T10:12:45;96840.00;;;14.30
18219;BMP180;9234;49.344;11.120;2023-03-25T10:15:26;96842.00;;;14.00
18219;BMP180;9234;49.344;11.120;2023-03-25T10:18:18;96840.00;;;14.00
18219;BMP180;9234;49.344;11.120;2023-03-25T10:20:56;96841.00;;;13.90
18219;BMP180;9234;49.344;11.120;2023-03-25T10:23:35;96815.00;;;13.70
18219;BMP180;9234;49.344;11.120;2023-03-25T10:26:12;96828.00;;;13.50
18219;BMP180;9234;49.344;11.120;2023-03-25T10:28:53;96816.00;;;13.30
18219;BMP180;9234;49.344;11.120;2023-03-25T10:31:27;96819.00;;;13.10
18219;BMP180;9234;49.344;11.120;2023-03-25T10:34:04;96814.00;;;13.10
18219;BMP180;9234;49.344;11.120;2023-03-25T10:36:37;96817.00;;;13.10
18219;BMP180;9234;49.344;11.120;2023-03-25T10:39:16;96811.00;;;13.20
18219;BMP180;9234;49.344;11.120;2023-03-25T10:41:50;96811.00;;;13.20
18219;BMP180;9234;49.344;11.120;2023-03-25T10:44:23;96818.00;;;13.20
18219;BMP180;9234;49.344;11.120;2023-03-25T10:47:00;96809.00;;;13.20
18219;BMP180;9234;49.344;11.120;2023-03-25T10:49:33;96811.00;;;13.10
18219;BMP180;9234;49.344;11.120;2023-03-25T10:52:03;96815.00;;;13.00
18219;BMP180;9234;49.344;11.120;2023-03-25T10:54:35;96796.00;;;13.10
18219;BMP180;9234;49.344;11.120;2023-03-25T10:57:08;96807.00;;;13.20
18219;BMP180;9234;49.344;11.120;2023-03-25T10:59:43;96798.00;;;13.30
18219;BMP180;9234;49.344;11.120;2023-03-25T11:02:18;96789.00;;;13.40
18219;BMP180;9234;49.344;11.120;2023-03-25T11:04:52;96775.00;;;13.40
18219;BMP180;9234;49.344;11.120;2023-03-25T11:07:27;96778.00;;;13.30
18219;BMP180;9234;49.344;11.120;2023-03-25T11:10:17;96795.00;;;13.10
18219;BMP180;9234;49.344;11.120;2023-03-25T11:12:45;96821.00;;;12.90
18219;BMP180;9234;49.344;11.120;2023-03-25T11:15:23;96880.00;;;12.40
18219;BMP180;9234;49.344;11.120;2023-03-25T11:17:58;96848.00;;;11.80
18219;BMP180;9234;49.344;11.120;2023-03-25T11:20:34;96836.00;;;11.00
18219;BMP180;9234;49.344;11.120;2023-03-25T11:23:07;96853.00;;;10.40
18219;BMP180;9234;49.344;11.120;2023-03-25T11:25:39;96844.00;;;10.10
18219;BMP180;9234;49.344;11.120;2023-03-25T11:28:16;96833.00;;;9.90
18219;BMP180;9234;49.344;11.120;2023-03-25T11:31:12;96839.00;;;9.90
18219;BMP180;9234;49.344;11.120;2023-03-25T11:33:43;96844.00;;;9.90
18219;BMP180;9234;49.344;11.120;2023-03-25T11:36:22;96833.00;;;9.90
18219;BMP180;9234;49.344;11.120;2023-03-25T11:38:57;96823.00;;;10.10
18219;BMP180;9234;49.344;11.120;2023-03-25T11:41:35;96820.00;;;10.30
18219;BMP180;9234;49.344;11.120;2023-03-25T11:44:05;96827.00;;;10.50
18219;BMP180;9234;49.344;11.120;2023-03-25T11:46:41;96804.00;;;10.70
18219;BMP180;9234;49.344;11.120;2023-03-25T11:49:15;96818.00;;;10.90
18219;BMP180;9234;49.344;11.120;2023-03-25T11:51:46;96806.00;;;11.00
18219;BMP180;9234;49.344;11.120;2023-03-25T11:54:17;96810.00;;;11.00
18219;BMP180;9234;49.344;11.120;2023-03-25T11:56:48;96806.00;;;11.10
18219;BMP180;9234;49.344;11.120;2023-03-25T11:59:22;96811.00;;;11.30
18219;BMP180;9234;49.344;11.120;2023-03-25T12:02:00;96799.00;;;11.30
18219;BMP180;9234;49.344;11.120;2023-03-25T12:04:30;96814.00;;;11.40
18219;BMP180;9234;49.344;11.120;2023-03-25T12:07:05;96793.00;;;11.40
18219;BMP180;9234;49.344;11.120;2023-03-25T12:09:35;96790.00;;;11.40
18219;BMP180;9234;49.344;11.120;2023-03-25T12:12:38;96792.00;;;11.40
18219;BMP180;9234;49.344;11.120;2023-03-25T12:15:34;96786.00;;;11.40
18219;BMP180;9234;49.344;11.120;2023-03-25T12:18:29;96795.00;;;11.70
18219;BMP180;9234;49.344;11.120;2023-03-25T12:21:09;96783.00;;;12.10
18219;BMP180;9234;49.344;11.120;2023-03-25T12:23:54;96780.00;;;12.80
18219;BMP180;9234;49.344;11.120;2023-03-25T12:26:38;96780.00;;;13.70
18219;BMP180;9234;49.344;11.120;2023-03-25T12:29:35;96769.00;;;14.50
18219;BMP180;9234;49.344;11.120;2023-03-25T12:32:25;96768.00;;;15.20
18219;BMP180;9234;49.344;11.120;2023-03-25T12:35:12;96752.00;;;15.80
18219;BMP180;9234;49.344;11.120;2023-03-25T12:38:19;96769.00;;;16.70
18219;BMP180;9234;49.344;11.120;2023-03-25T12:41:05;96736.00;;;16.90
18219;BMP180;9234;49.344;11.120;2023-03-25T12:43:59;96748.00;;;17.60
18219;BMP180;9234;49.344;11.120;2023-03-25T12:47:10;96748.00;;;18.30
18219;BMP180;9234;49.344;11.120;2023-03-25T12:50:26;96735.00;;;18.70
18219;BMP180;9234;49.344;11.120;2023-03-25T12:53:18;96750.00;;;19.10
18219;BMP180;9234;49.344;11.120;2023-03-25T12:56:03;96726.00;;;18.80
18219;BMP180;9234;49.344;11.120;2023-03-25T12:59:09;96736.00;;;17.90
18219;BMP180;9234;49.344;11.120;2023-03-25T13:01:53;96735.00;;;17.20
18219;BMP180;9234;49.344;11.120;2023-03-25T13:04:55;96736.00;;;16.60
18219;BMP180;9234;49.344;11.120;2023-03-25T13:07:33;96732.00;;;16.50
18219;BMP180;9234;49.344;11.120;2023-03-25T13:10:13;96736.00;;;16.10
18219;BMP180;9234;49.344;11.120;2023-03-25T13:12:46;96719.00;;;15.30
18219;BMP180;9234;49.344;11.120;2023-03-25T13:15:19;96720.00;;;14.60
18219;BMP180;9234;49.344;11.120;2023-03-25T13:17:58;96750.00;;;14.20
18219;BMP180;9234;49.344;11.120;2023-03-25T13:20:34;96769.00;;;13.70
18219;BMP180;9234;49.344;11.120;2023-03-25T13:23:10;96776.00;;;12.70
18219;BMP180;9234;49.344;11.120;2023-03-25T13:25:47;96774.00;;;11.80
18219;BMP180;9234;49.344;11.120;2023-03-25T13:28:25;96779.00;;;11.20
18219;BMP180;9234;49.344;11.120;2023-03-25T13:30:56;96769.00;;;11.40
18219;BMP180;9234;49.344;11.120;2023-03-25T13:33:29;96772.00;;;11.80
18219;BMP180;9234;49.344;11.120;2023-03-25T13:36:08;96784.00;;;12.10
18219;BMP180;9234;49.344;11.120;2023-03-25T13:38:45;96768.00;;;12.40
18219;BMP180;9234;49.344;11.120;2023-03-25T13:41:22;96774.00;;;12.40
18219;BMP180;9234;49.344;11.120;2023-03-25T13:44:03;96771.00;;;12.50
18219;BMP180;9234;49.344;11.120;2023-03-25T13:46:37;96776.00;;;12.90
18219;BMP180;9234;49.344;11.120;2023-03-25T13:49:17;96764.00;;;13.30
18219;BMP180;9234;49.344;11.120;2023-03-25T13:51:47;96763.00;;;13.40
18219;BMP180;9234;49.344;11.120;2023-03-25T13:54:21;96764.00;;;13.40
18219;BMP180;9234;49.344;11.120;2023-03-25T13:57:33;96761.00;;;14.00
18219;BMP180;9234;49.344;11.120;2023-03-25T14:00:29;96756.00;;;15.90
18219;BMP180;9234;49.344;11.120;2023-03-25T14:10:11;96796.00;;;15.50
18219;BMP180;9234;49.344;11.120;2023-03-25T14:12:50;96823.00;;;14.30
18219;BMP180;9234;49.344;11.120;2023-03-25T14:15:23;96815.00;;;13.40
18219;BMP180;9234;49.344;11.120;2023-03-25T14:17:53;96799.00;;;13.50
18219;BMP180;9234;49.344;11.120;2023-03-25T14:20:28;96795.00;;;14.00
18219;BMP180;9234;49.344;11.120;2023-03-25T14:23:04;96797.00;;;15.00
18219;BMP180;9234;49.344;11.120;2023-03-25T14:25:39;96781.00;;;16.60
18219;BMP180;9234;49.344;11.120;2023-03-25T14:28:16;96776.00;;;17.90
18219;BMP180;9234;49.344;11.120;2023-03-25T14:31:07;96775.00;;;19.00
18219;BMP180;9234;49.344;11.120;2023-03-25T14:34:12;96769.00;;;19.90
18219;BMP180;9234;49.344;11.120;2023-03-25T14:37:23;96760.00;;;20.20
18219;BMP180;9234;49.344;11.120;2023-03-25T14:39:59;96775.00;;;20.70
18219;BMP180;9234;49.344;11.120;2023-03-25T14:42:41;96781.00;;;21.10
18219;BMP180;9234;49.344;11.120;2023-03-25T14:45:39;96761.00;;;20.90
18219;BMP180;9234;49.344;11.120;2023-03-25T14:48:29;96767.00;;;21.30
18219;BMP180;9234;49.344;11.120;2023-03-25T14:51:14;96767.00;;;21.70
18219;BMP180;9234;49.344;11.120;2023-03-25T14:53:55;96766.00;;;21.70
18219;BMP180;9234;49.344;11.120;2023-03-25T14:56:33;96770.00;;;22.00
18219;BMP180;9234;49.344;11.120;2023-03-25T14:59:09;96778.00;;;21.90
18219;BMP180;9234;49.344;11.120;2023-03-25T15:01:43;96775.00;;;22.00
18219;BMP180;9234;49.344;11.120;2023-03-25T15:04:23;96767.00;;;21.90
18219;BMP180;9234;49.344;11.120;2023-03-25T15:06:52;96776.00;;;21.50